
Distance (Route):
Temperature : -47.9°C
Humidity : 81.2%
Pressure : 292.9hPa| Receiver | Frames | First received | Last received |
|---|---|---|---|
| DL1XH-west | 193 | 2026-08-30 23:59:23 | 2026-08-31 00:34:28 |
| DJ2DS-15 | 82 | 2026-08-30 23:45:40 | 2026-08-31 00:37:44 |
| DM0DOS-11 | 62 | 2026-08-31 00:17:33 | 2026-08-31 00:31:14 |
| Receiver | Date | Latitude | Longitude | Direction | Speed | Altitude | Climb | Temperature | Humidity | Pressure | Voltage | Killtimer | Uptime | BKT | XDATA |
|---|---|---|---|---|---|---|---|---|---|---|---|---|---|---|---|
| DJ2DS-15 | 2026-08-31 00:37:44 | 56.96839 | 3.76095 | 28° | 38km/h | 9359m | -19.1m/s | -47.9°C | 81.2% | 292.9hPa | 2.5V | 00:00:00 | 01:43:28 | 00:00:00 | |
| DJ2DS-15 | 2026-08-31 00:37:30 | 56.96717 | 3.75991 | 21° | 42km/h | 9627m | -19.9m/s | -50.3°C | 61.9% | 281.2hPa | 2.5V | 00:00:00 | 00:00:00 | 00:00:00 | |
| DJ2DS-15 | 2026-08-31 00:37:24 | 56.96652 | 3.75946 | 20° | 55km/h | 9747m | -19.8m/s | -51.2°C | 69.0% | 276.2hPa | 2.5V | 08:23:00 | 01:43:08 | 00:00:00 | |
| DJ2DS-15 | 2026-08-31 00:35:53 | 56.95399 | 3.74492 | 47° | 55km/h | 11597m | -22.5m/s | -49.2°C | 3.6% | 207.2hPa | 2.4V | 00:00:00 | 01:41:37 | 00:00:00 | |
| DJ2DS-15 | 2026-08-31 00:35:33 | 56.95195 | 3.74158 | 31° | 58km/h | 12044m | -22.1m/s | -48.8°C | 3.6% | 193.6hPa | 2.4V | 00:00:00 | 01:41:17 | 00:00:00 | |
| DJ2DS-15 | 2026-08-31 00:35:12 | 56.94940 | 3.73832 | 35° | 47km/h | 12519m | -23.2m/s | -45.8°C | 3.0% | 180.1hPa | 2.4V | 00:00:00 | 01:40:56 | 00:00:00 | |
| DJ2DS-15 | 2026-08-31 00:35:06 | 56.94873 | 3.73728 | 44° | 51km/h | 12660m | -23.3m/s | -45.6°C | 1.1% | 176.4hPa | 2.5V | 00:00:00 | 00:00:00 | 00:00:00 | |
| DJ2DS-15 | 2026-08-31 00:34:52 | 56.94773 | 3.73522 | 43° | 44km/h | 12991m | -24.7m/s | -45.2°C | 2.8% | 167.9hPa | 2.5V | 00:00:00 | 01:40:36 | 00:00:00 | |
| DL1XH-west | 2026-08-31 00:34:28 | 56.94558 | 3.73193 | 43° | 53km/h | 13592m | -27m/s | -47°C | 0% | 153.3hPa | 2.5V | 08:26:42 | 01:40:12 | 00:00:00 | |
| DL1XH-west | 2026-08-31 00:34:17 | 56.94458 | 3.73028 | 37° | 44km/h | 13877m | -26.3m/s | -46.6°C | 0% | 146.9hPa | 2.5V | 08:26:42 | 01:40:01 | 00:00:00 | |
| DL1XH-west | 2026-08-31 00:33:58 | 56.94268 | 3.72806 | 36° | 42km/h | 14392m | -27.6m/s | -47°C | 0% | 135.9hPa | 2.4V | 08:26:42 | 01:39:41 | 00:00:00 | |
| DL1XH-west | 2026-08-31 00:33:47 | 56.94163 | 3.72651 | 42° | 46km/h | 14753m | -27.7m/s | -47.8°C | 0% | 128.7hPa | 2.5V | 08:26:42 | 01:39:28 | 00:00:00 | |
| DL1XH-west | 2026-08-31 00:33:35 | 56.94082 | 3.72518 | 37° | 38km/h | 15027m | -28.4m/s | -47.5°C | 0% | 123.5hPa | 2.5V | 08:27:33 | 01:39:18 | 00:00:00 | |
| DL1XH-west | 2026-08-31 00:33:24 | 56.93992 | 3.72376 | 48° | 47km/h | 15330m | -27.5m/s | -47.3°C | 0% | 117.8hPa | 2.4V | 08:27:33 | 01:39:07 | 00:00:00 | |
| DL1XH-west | 2026-08-31 00:33:14 | 56.93932 | 3.72210 | 55° | 29km/h | 15640m | -30.4m/s | -47.1°C | 0% | 112.4hPa | 2.5V | 08:27:33 | 01:38:56 | 00:00:00 | |
| DL1XH-west | 2026-08-31 00:33:03 | 56.93888 | 3.72120 | 39° | 33km/h | 15913m | -31.4m/s | -48.2°C | 0% | 107.9hPa | 2.4V | 08:27:33 | 01:38:47 | 00:00:00 | |
| DL1XH-west | 2026-08-31 00:32:53 | 56.93803 | 3.71990 | 42° | 40km/h | 16281m | -30.5m/s | -48.7°C | 0% | 102.1hPa | 2.5V | 08:28:24 | 01:38:35 | 00:00:00 | |
| DL1XH-west | 2026-08-31 00:32:42 | 56.93737 | 3.71867 | 47° | 38km/h | 16559m | -33m/s | -48.4°C | 0% | 97.7hPa | 2.5V | 08:28:24 | 01:38:26 | 00:00:00 | |
| DL1XH-west | 2026-08-31 00:32:32 | 56.93674 | 3.71780 | 28° | 29km/h | 16877m | -31.7m/s | -48.6°C | 0% | 93.2hPa | 2.5V | 08:28:24 | 01:38:16 | 00:00:00 | |
| DL1XH-west | 2026-08-31 00:32:22 | 56.93604 | 3.71689 | 45° | 35km/h | 17195m | -32.7m/s | -48.1°C | 0% | 88.7hPa | 2.5V | 08:28:24 | 01:38:06 | 00:00:00 | |
| DL1XH-west | 2026-08-31 00:32:11 | 56.93540 | 3.71589 | 35° | 33km/h | 17542m | -32.3m/s | -48.4°C | 0.1% | 84.1hPa | 2.5V | 08:28:24 | 01:37:55 | 00:00:00 | |
| DL1XH-west | 2026-08-31 00:32:00 | 56.93466 | 3.71470 | 40° | 38km/h | 17905m | -33m/s | -47.6°C | 0% | 79.6hPa | 2.4V | 08:29:15 | 01:37:44 | 00:00:00 | |
| DL1XH-west | 2026-08-31 00:31:49 | 56.93391 | 3.71336 | 53° | 40km/h | 18276m | -33.5m/s | -47.7°C | 0% | 75.3hPa | 2.4V | 08:29:15 | 01:37:33 | 00:00:00 | |
| DL1XH-west | 2026-08-31 00:31:38 | 56.93338 | 3.71191 | 53° | 26km/h | 18647m | -34.1m/s | -47.6°C | 0% | 71.2hPa | 2.4V | 08:29:15 | 01:37:22 | 00:00:00 | |
| DL1XH-west | 2026-08-31 00:31:28 | 56.93266 | 3.71053 | 54° | 35km/h | 19106m | -35.9m/s | -48.8°C | 0% | 66.3hPa | 2.4V | 08:29:15 | 01:37:09 | 00:00:00 | |
| DL1XH-west | 2026-08-31 00:31:15 | 56.93190 | 3.70924 | 40° | 38km/h | 19539m | -37.9m/s | -48.5°C | 0% | 62.1hPa | 2.4V | 08:29:15 | 01:36:57 | 00:00:00 | |
| DM0DOS-11 | 2026-08-31 00:31:14 | 56.93169 | 3.70886 | 50° | 35km/h | 19652m | -37.2m/s | -48.4°C | 3% | 61.1hPa | 2.4V | 08:29:15 | 01:36:54 | 00:00:00 | |
| DJ2DS-15 | 2026-08-31 00:31:11 | 56.93176 | 3.70899 | 50° | 27km/h | 19615m | -37.7m/s | -48.5°C | 3.0% | 61.4hPa | 2.5V | 00:00:00 | 01:36:55 | 00:00:00 | |
| DM0DOS-11 | 2026-08-31 00:31:03 | 56.93129 | 3.70814 | 15° | 20km/h | 20015m | -36.8m/s | -49.5°C | 3.1% | 57.8hPa | 2.4V | 08:30:00 | 01:36:44 | 00:00:00 | |
| DL1XH-west | 2026-08-31 00:31:02 | 56.93138 | 3.70820 | 25° | 16km/h | 19940m | -37.8m/s | -49.2°C | 0% | 58.4hPa | 2.5V | 18:12:15 | 01:36:46 | 00:00:00 | |
| DL1XH-west | 2026-08-31 00:30:52 | 56.93068 | 3.70766 | 37° | 33km/h | 20355m | -37.2m/s | -50.5°C | 0.1% | 54.8hPa | 2.5V | 18:12:15 | 01:36:35 | 00:00:00 | |
| DJ2DS-15 | 2026-08-31 00:30:51 | 56.93068 | 3.70766 | 37° | 26km/h | 20356m | -37.1m/s | -50.4°C | 3.4% | 54.8hPa | 2.4V | 00:00:00 | 01:36:35 | 00:00:00 | |
| DM0DOS-11 | 2026-08-31 00:30:41 | 56.93009 | 3.70690 | 21° | 24km/h | 20754m | -36.1m/s | -50.8°C | 3.5% | 51.5hPa | 2.4V | 08:30:00 | 01:36:24 | 00:00:00 | |
| DL1XH-west | 2026-08-31 00:30:40 | 56.93009 | 3.70690 | 21° | 24km/h | 20754m | -36.1m/s | -50.8°C | 0.2% | 51.5hPa | 2.4V | 18:12:15 | 01:36:24 | 00:00:00 | |
| DM0DOS-11 | 2026-08-31 00:30:34 | 56.92957 | 3.70639 | 26° | 29km/h | 21129m | -37.6m/s | -51.3°C | 3.6% | 48.6hPa | 2.4V | 08:30:00 | 01:36:14 | 00:00:00 | |
| DL1XH-west | 2026-08-31 00:30:30 | 56.92950 | 3.70631 | 39° | 29km/h | 21167m | -39.5m/s | -51.4°C | 0.3% | 48.3hPa | 2.4V | 18:12:15 | 01:36:13 | 00:00:00 | |
| DM0DOS-11 | 2026-08-31 00:30:22 | 56.92920 | 3.70558 | 65° | 15km/h | 21543m | -42.6m/s | -51.2°C | 3.5% | 45.6hPa | 2.4V | 08:30:00 | 01:36:04 | 00:00:00 | |
| DL1XH-west | 2026-08-31 00:30:19 | 56.92918 | 3.70547 | 73° | 11km/h | 21623m | -38.6m/s | -51.5°C | 0.3% | 45hPa | 2.4V | 18:12:15 | 01:36:02 | 00:00:00 | |
| DM0DOS-11 | 2026-08-31 00:30:11 | 56.92905 | 3.70519 | 50° | 11km/h | 21921m | -37m/s | -51.7°C | 3.6% | 43hPa | 2.4V | 08:30:00 | 01:35:54 | 00:00:00 | |
| DL1XH-west | 2026-08-31 00:30:07 | 56.92900 | 3.70509 | 42° | 9km/h | 22028m | -35.8m/s | -51.5°C | 0% | 42.3hPa | 2.5V | 18:12:15 | 01:35:51 | 00:00:00 | |
| DM0DOS-11 | 2026-08-31 00:30:01 | 56.92894 | 3.70489 | 52° | 5km/h | 22266m | -29.4m/s | -52°C | 3.4% | 40.7hPa | 2.4V | 08:30:00 | 01:35:44 | 00:00:00 | |
| DL1XH-west | 2026-08-31 00:29:56 | 56.92888 | 3.70488 | 346° | 9km/h | 22356m | -13m/s | -52.3°C | 0.3% | 40.1hPa | 2.5V | 18:12:15 | 01:35:40 | 00:00:00 | |
| DM0DOS-11 | 2026-08-31 00:29:51 | 56.92879 | 3.70487 | 70° | 2km/h | 22344m | 5.8m/s | -52.3°C | 3.8% | 40.1hPa | 2.5V | 08:30:00 | 01:35:34 | 00:00:00 | |
| DL1XH-west | 2026-08-31 00:29:45 | 56.92873 | 3.70483 | 14° | 9km/h | 22319m | 4.1m/s | -52.4°C | 0.3% | 40.3hPa | 2.5V | 18:12:15 | 01:35:29 | 00:00:00 | |
| DL1XH-west | 2026-08-31 00:29:35 | 56.92859 | 3.70463 | 122° | 4km/h | 22272m | 5.6m/s | -52.3°C | 0.4% | 40.6hPa | 2.5V | 18:12:15 | 01:35:19 | 00:00:00 | |
| DM0DOS-11 | 2026-08-31 00:29:31 | 56.92855 | 3.70456 | 27° | 9km/h | 22249m | 4m/s | -52.3°C | 3.8% | 40.8hPa | 2.5V | 08:30:00 | 01:35:14 | 00:00:00 | |
| DL1XH-west | 2026-08-31 00:29:24 | 56.92841 | 3.70435 | 14° | 9km/h | 22221m | 3.7m/s | -52.2°C | 0.3% | 40.9hPa | 2.5V | 18:12:15 | 01:35:08 | 00:00:00 | |
| DM0DOS-11 | 2026-08-31 00:29:21 | 56.92836 | 3.70430 | 27° | 5km/h | 22203m | 4.2m/s | -52.3°C | 3.8% | 41hPa | 2.5V | 08:30:00 | 01:35:04 | 00:00:00 | |
| DL1XH-west | 2026-08-31 00:29:13 | 56.92823 | 3.70410 | 72° | 9km/h | 22169m | 5.7m/s | -52.4°C | 0.4% | 41.2hPa | 2.5V | 18:12:15 | 01:34:57 | 00:00:00 | |
| DJ2DS-15 | 2026-08-31 00:29:11 | 56.92822 | 3.70402 | 81° | 11km/h | 22159m | 4.4m/s | -52.3°C | 3.8% | 41.3hPa | 2.6V | 00:00:00 | 01:34:55 | 00:00:00 | |
| DM0DOS-11 | 2026-08-31 00:29:04 | 56.92807 | 3.70354 | 55° | 15km/h | 22119m | 4m/s | -52.1°C | 3.8% | 41.6hPa | 2.5V | 08:30:00 | 01:34:47 | 00:00:00 | |
| DL1XH-west | 2026-08-31 00:29:02 | 56.92805 | 3.70349 | 49° | 11km/h | 22114m | 5.4m/s | -52.1°C | 0.3% | 41.6hPa | 2.6V | 18:12:15 | 01:34:46 | 00:00:00 | |
| DM0DOS-11 | 2026-08-31 00:28:58 | 56.92795 | 3.70325 | 55° | 15km/h | 22071m | 4.9m/s | -52°C | 3.7% | 41.9hPa | 2.5V | 08:30:00 | 01:34:37 | 00:00:00 | |
| DL1XH-west | 2026-08-31 00:28:52 | 56.92793 | 3.70319 | 57° | 16km/h | 22066m | 4.2m/s | -52°C | 0.3% | 41.9hPa | 2.6V | 18:12:15 | 01:34:36 | 00:00:00 | |
| DJ2DS-15 | 2026-08-31 00:28:51 | 56.92790 | 3.70313 | 48° | 9km/h | 22061m | 5.2m/s | -52.0°C | 3.7% | 41.9hPa | 2.5V | 00:00:00 | 01:34:35 | 00:00:00 | |
| DM0DOS-11 | 2026-08-31 00:28:48 | 56.92776 | 3.70306 | 327° | 5km/h | 22021m | 5.6m/s | -52.1°C | 3.7% | 42.2hPa | 2.5V | 08:30:00 | 01:34:27 | 00:00:00 | |
| DL1XH-west | 2026-08-31 00:28:42 | 56.92775 | 3.70306 | 22° | 5km/h | 22016m | 4.4m/s | -52.1°C | 0.3% | 42.2hPa | 2.6V | 18:12:15 | 01:34:26 | 00:00:00 | |
| DM0DOS-11 | 2026-08-31 00:28:38 | 56.92756 | 3.70281 | 29° | 7km/h | 21971m | 4.5m/s | -52.2°C | 3.7% | 42.5hPa | 2.5V | 08:30:00 | 01:34:17 | 00:00:00 | |
| DL1XH-west | 2026-08-31 00:28:32 | 56.92754 | 3.70279 | 36° | 7km/h | 21966m | 5.9m/s | -52.2°C | 0.3% | 42.6hPa | 2.6V | 18:12:15 | 01:34:16 | 00:00:00 | |
| DJ2DS-15 | 2026-08-31 00:28:31 | 56.92753 | 3.70276 | 54° | 13km/h | 21961m | 4.6m/s | -52.2°C | 3.8% | 42.6hPa | 2.6V | 00:00:00 | 01:34:15 | 00:00:00 | |
| DM0DOS-11 | 2026-08-31 00:28:28 | 56.92733 | 3.70225 | 62° | 18km/h | 21909m | 5.1m/s | -52.4°C | 3.8% | 43hPa | 2.6V | 08:30:00 | 01:34:05 | 00:00:00 | |
| DL1XH-west | 2026-08-31 00:28:22 | 56.92733 | 3.70225 | 63° | 18km/h | 21909m | 5.1m/s | -52.4°C | 0.4% | 43hPa | 2.6V | 18:12:15 | 01:34:05 | 00:00:00 | |
| DM0DOS-11 | 2026-08-31 00:28:12 | 56.92692 | 3.70094 | 112° | 11km/h | 21742m | 4.9m/s | -51.7°C | 3.7% | 44.1hPa | 2.5V | 08:30:00 | 01:33:33 | 00:00:00 | |
| DL1XH-west | 2026-08-31 00:28:11 | 56.92689 | 3.70052 | 75° | 16km/h | 21707m | 5m/s | -51.8°C | 0.4% | 44.3hPa | 2.6V | 18:12:15 | 01:33:26 | 00:00:00 | |
| DJ2DS-15 | 2026-08-31 00:28:11 | 56.92713 | 3.70180 | 57° | 11km/h | 21858m | 5.7m/s | -52.3°C | 3.8% | 43.3hPa | 2.6V | 00:00:00 | 01:33:55 | 00:00:00 | |
| DM0DOS-11 | 2026-08-31 00:28:00 | 56.92689 | 3.70052 | 75° | 16km/h | 21707m | 5m/s | -51.8°C | 3.7% | 44.3hPa | 2.6V | 08:30:00 | 01:33:26 | 00:00:00 | |
| DL1XH-west | 2026-08-31 00:27:36 | 56.92687 | 3.70017 | 103° | 13km/h | 21674m | 5.1m/s | -51.9°C | 0.3% | 44.6hPa | 2.6V | 18:12:15 | 01:33:20 | 00:00:00 | |
| DL1XH-west | 2026-08-31 00:27:25 | 56.92691 | 3.69928 | 76° | 18km/h | 21617m | 5.1m/s | -52°C | 0.4% | 45hPa | 2.5V | 18:12:15 | 01:33:09 | 00:00:00 | |
| DJ2DS-15 | 2026-08-31 00:27:17 | 56.92680 | 3.69855 | 79° | 22km/h | 21571m | 6.2m/s | -51.9°C | 0.9% | 45.3hPa | 2.5V | 00:00:00 | 00:00:00 | 00:00:00 | |
| DM0DOS-11 | 2026-08-31 00:27:15 | 56.92672 | 3.69804 | 71° | 18km/h | 21545m | 3.9m/s | -51.8°C | 3.7% | 45.5hPa | 2.5V | 08:30:00 | 01:32:55 | 00:00:00 | |
| DL1XH-west | 2026-08-31 00:27:15 | 56.92679 | 3.69844 | 77° | 26km/h | 21565m | 4.9m/s | -51.9°C | 0.3% | 45.4hPa | 2.5V | 18:12:15 | 01:32:59 | 00:00:00 | |
| DL1XH-west | 2026-08-31 00:27:05 | 56.92660 | 3.69762 | 57° | 13km/h | 21514m | 4.2m/s | -51.8°C | 0.4% | 45.7hPa | 2.5V | 18:12:15 | 01:32:49 | 00:00:00 | |
| DM0DOS-11 | 2026-08-31 00:27:02 | 56.92649 | 3.69735 | 56° | 22km/h | 21493m | 5.9m/s | -51.7°C | 3.7% | 45.8hPa | 2.6V | 08:30:00 | 01:32:45 | 00:00:00 | |
| DL1XH-west | 2026-08-31 00:26:54 | 56.92629 | 3.69661 | 65° | 22km/h | 21457m | 4.1m/s | -51.7°C | 0.3% | 46.1hPa | 2.5V | 18:12:15 | 01:32:38 | 00:00:00 | |
| DM0DOS-11 | 2026-08-31 00:26:52 | 56.92619 | 3.69632 | 52° | 27km/h | 21441m | 4.5m/s | -51.7°C | 3.7% | 46.2hPa | 2.6V | 08:30:00 | 01:32:35 | 00:00:00 | |
| DL1XH-west | 2026-08-31 00:26:43 | 56.92587 | 3.69537 | 59° | 31km/h | 21399m | 5.2m/s | -51.7°C | 0.3% | 46.5hPa | 2.5V | 18:12:15 | 01:32:27 | 00:00:00 | |
| DM0DOS-11 | 2026-08-31 00:26:42 | 56.92578 | 3.69511 | 53° | 37km/h | 21388m | 5.1m/s | -51.7°C | 3.7% | 46.6hPa | 2.6V | 08:30:00 | 01:32:25 | 00:00:00 | |
| DL1XH-west | 2026-08-31 00:26:33 | 56.92529 | 3.69393 | 44° | 37km/h | 21341m | 4.7m/s | -51.8°C | 0.3% | 46.9hPa | 2.6V | 18:12:15 | 01:32:16 | 00:00:00 | |
| DM0DOS-11 | 2026-08-31 00:26:32 | 56.92522 | 3.69381 | 43° | 38km/h | 21336m | 6.2m/s | -51.8°C | 3.7% | 47hPa | 2.6V | 08:30:00 | 01:32:15 | 00:00:00 | |
| DJ2DS-15 | 2026-08-31 00:26:30 | 56.92516 | 3.69369 | 42° | 37km/h | 21331m | 4.7m/s | -51.7°C | 3.7% | 47.0hPa | 2.5V | 00:00:00 | 01:32:14 | 00:00:00 | |
| DM0DOS-11 | 2026-08-31 00:26:22 | 56.92454 | 3.69271 | 38° | 35km/h | 21283m | 3.9m/s | -51.6°C | 3.7% | 47.3hPa | 2.5V | 08:30:00 | 01:32:05 | 00:00:00 | |
| DL1XH-west | 2026-08-31 00:26:22 | 56.92461 | 3.69281 | 40° | 35km/h | 21288m | 5.3m/s | -51.6°C | 0.3% | 47.3hPa | 2.5V | 18:12:15 | 01:32:06 | 00:00:00 | |
| DM0DOS-11 | 2026-08-31 00:26:16 | 56.92376 | 3.69178 | 41° | 37km/h | 21230m | 5.5m/s | -51.4°C | 3.5% | 47.8hPa | 2.5V | 08:30:00 | 01:31:55 | 00:00:00 | |
| DL1XH-west | 2026-08-31 00:26:12 | 56.92383 | 3.69189 | 39° | 38km/h | 21235m | 4.6m/s | -51.4°C | 0.3% | 47.7hPa | 2.5V | 18:12:15 | 01:31:56 | 00:00:00 | |
| DJ2DS-15 | 2026-08-31 00:26:10 | 56.92369 | 3.69167 | 40° | 33km/h | 21225m | 4.5m/s | -51.3°C | 3.6% | 47.7hPa | 2.6V | 00:00:00 | 01:31:54 | 00:00:00 | |
| DM0DOS-11 | 2026-08-31 00:26:06 | 56.92296 | 3.69107 | 18° | 35km/h | 21178m | 5.1m/s | -51.6°C | 3.6% | 48.1hPa | 2.5V | 08:30:00 | 01:31:45 | 00:00:00 | |
| DL1XH-west | 2026-08-31 00:26:01 | 56.92296 | 3.69107 | 19° | 35km/h | 21178m | 5.1m/s | -51.6°C | 0.3% | 48.1hPa | 2.5V | 18:12:15 | 01:31:45 | 00:00:00 | |
| DM0DOS-11 | 2026-08-31 00:25:56 | 56.92228 | 3.69047 | 21° | 31km/h | 21126m | 4.5m/s | -51.7°C | 3.7% | 48.5hPa | 2.5V | 08:30:00 | 01:31:35 | 00:00:00 | |
| DL1XH-west | 2026-08-31 00:25:51 | 56.92228 | 3.69047 | 21° | 31km/h | 21126m | 4.5m/s | -51.7°C | 0.4% | 48.5hPa | 2.5V | 18:12:15 | 01:31:35 | 00:00:00 | |
| DJ2DS-15 | 2026-08-31 00:25:50 | 56.92221 | 3.69042 | 20° | 26km/h | 21122m | 4.6m/s | -51.6°C | 3.7% | 48.5hPa | 2.5V | 00:00:00 | 01:31:34 | 00:00:00 | |
| DM0DOS-11 | 2026-08-31 00:25:46 | 56.92151 | 3.69017 | 7° | 26km/h | 21076m | 5.7m/s | -51.4°C | 3.7% | 48.9hPa | 2.5V | 08:30:00 | 01:31:25 | 00:00:00 | |
| DL1XH-west | 2026-08-31 00:25:40 | 56.92145 | 3.69015 | 14° | 24km/h | 21071m | 4.3m/s | -51.4°C | 0.3% | 49hPa | 2.5V | 18:12:15 | 01:31:24 | 00:00:00 | |
| DM0DOS-11 | 2026-08-31 00:25:36 | 56.92100 | 3.68988 | 3° | 24km/h | 21025m | 4.2m/s | -51.4°C | 3.6% | 49.3hPa | 2.6V | 08:30:00 | 01:31:15 | 00:00:00 | |
| DL1XH-west | 2026-08-31 00:25:29 | 56.92088 | 3.68985 | 14° | 26km/h | 21016m | 5.9m/s | -51.3°C | 0.3% | 49.4hPa | 2.5V | 18:12:15 | 01:31:13 | 00:00:00 | |
| DJ2DS-15 | 2026-08-31 00:25:29 | 56.92082 | 3.68981 | 19° | 26km/h | 21010m | 4.4m/s | -51.3°C | 0.9% | 49.4hPa | 2.6V | 00:00:00 | 00:00:00 | 00:00:00 | |
| DM0DOS-11 | 2026-08-31 00:25:26 | 56.92053 | 3.68943 | 34° | 18km/h | 20974m | 5.7m/s | -51.2°C | 3.6% | 49.7hPa | 2.6V | 08:30:00 | 01:31:05 | 00:00:00 | |
| DL1XH-west | 2026-08-31 00:25:19 | 56.92045 | 3.68936 | 26° | 18km/h | 20964m | 5.5m/s | -51.3°C | 0.3% | 49.8hPa | 2.5V | 18:12:15 | 01:31:03 | 00:00:00 | |
| DM0DOS-11 | 2026-08-31 00:25:16 | 56.92009 | 3.68892 | 53° | 22km/h | 20924m | 3.9m/s | -51.3°C | 3.7% | 50.1hPa | 2.5V | 08:30:00 | 01:30:55 | 00:00:00 | |
| DL1XH-west | 2026-08-31 00:25:08 | 56.92002 | 3.68870 | 64° | 15km/h | 20909m | 4.1m/s | -51.2°C | 0.3% | 50.2hPa | 2.6V | 18:12:15 | 01:30:52 | 00:00:00 | |
| DM0DOS-11 | 2026-08-31 00:25:06 | 56.91981 | 3.68833 | 23° | 24km/h | 20873m | 4.7m/s | -51.2°C | 3.6% | 50.5hPa | 2.5V | 08:30:00 | 01:30:45 | 00:00:00 | |
| DL1XH-west | 2026-08-31 00:24:57 | 56.91961 | 3.68816 | 33° | 22km/h | 20852m | 4.4m/s | -51.1°C | 0.2% | 50.6hPa | 2.6V | 18:12:15 | 01:30:41 | 00:00:00 | |
| DM0DOS-11 | 2026-08-31 00:24:53 | 56.91930 | 3.68772 | 26° | 29km/h | 20816m | 4.1m/s | -50.9°C | 3.5% | 50.9hPa | 2.5V | 08:30:00 | 01:30:34 | 00:00:00 | |
| DL1XH-west | 2026-08-31 00:24:47 | 56.91904 | 3.68757 | 8° | 29km/h | 20797m | 5.4m/s | -51°C | 0.2% | 51hPa | 2.6V | 18:12:15 | 01:30:30 | 00:00:00 | |
| DL1XH-west | 2026-08-31 00:24:36 | 56.91840 | 3.68724 | 9° | 27km/h | 20742m | 5.6m/s | -51.2°C | 0.2% | 51.5hPa | 2.6V | 18:12:15 | 01:30:19 | 00:00:00 | |
| DM0DOS-11 | 2026-08-31 00:24:32 | 56.91806 | 3.68727 | 352° | 27km/h | 20718m | 5.4m/s | -51.5°C | 3.6% | 51.7hPa | 2.6V | 08:30:00 | 01:30:14 | 00:00:00 | |
| DL1XH-west | 2026-08-31 00:24:24 | 56.91770 | 3.68726 | 14° | 20km/h | 20689m | 5m/s | -51.6°C | 0.3% | 51.9hPa | 2.6V | 18:12:15 | 01:30:08 | 00:00:00 | |
| DM0DOS-11 | 2026-08-31 00:24:22 | 56.91755 | 3.68720 | 10° | 15km/h | 20669m | 3.1m/s | -51.6°C | 3.6% | 52.1hPa | 2.5V | 08:30:00 | 01:30:04 | 00:00:00 | |
| DL1XH-west | 2026-08-31 00:24:13 | 56.91724 | 3.68688 | 30° | 22km/h | 20637m | 4.4m/s | -51.7°C | 0.2% | 52.3hPa | 2.5V | 18:12:15 | 01:29:57 | 00:00:00 | |
| DM0DOS-11 | 2026-08-31 00:24:11 | 56.91693 | 3.68649 | 49° | 26km/h | 20604m | 4.5m/s | -51.8°C | 3.7% | 52.6hPa | 2.6V | 08:30:00 | 01:29:50 | 00:00:00 | |
| DL1XH-west | 2026-08-31 00:24:03 | 56.91676 | 3.68611 | 49° | 27km/h | 20585m | 4m/s | -51.8°C | 0.3% | 52.8hPa | 2.5V | 18:12:15 | 01:29:46 | 00:00:00 | |
| DL1XH-west | 2026-08-31 00:23:52 | 56.91630 | 3.68491 | 48° | 33km/h | 20532m | 4.4m/s | -51.7°C | 0.3% | 53.2hPa | 2.5V | 18:12:15 | 01:29:35 | 00:00:00 | |
| DM0DOS-11 | 2026-08-31 00:23:48 | 56.91598 | 3.68431 | 39° | 35km/h | 20508m | 3.7m/s | -51.7°C | 3.7% | 53.4hPa | 2.6V | 08:30:00 | 01:29:30 | 00:00:00 | |
| DL1XH-west | 2026-08-31 00:23:40 | 56.91563 | 3.68369 | 43° | 29km/h | 20480m | 4.3m/s | -51.5°C | 0.3% | 53.6hPa | 2.5V | 18:12:15 | 01:29:24 | 00:00:00 | |
| DM0DOS-11 | 2026-08-31 00:23:36 | 56.91531 | 3.68315 | 35° | 37km/h | 20456m | 4m/s | -51.4°C | 3.7% | 53.8hPa | 2.6V | 08:30:00 | 01:29:19 | 00:00:00 | |
| DM0DOS-11 | 2026-08-31 00:23:31 | 56.91463 | 3.68228 | 35° | 38km/h | 20408m | 4.6m/s | -51.2°C | 3.6% | 54.3hPa | 2.5V | 08:30:00 | 01:29:09 | 00:00:00 | |
| DL1XH-west | 2026-08-31 00:23:29 | 56.91489 | 3.68264 | 29° | 27km/h | 20426m | 4.1m/s | -51.3°C | 0.3% | 54.1hPa | 2.6V | 18:12:15 | 01:29:13 | 00:00:00 | |
| DL1XH-west | 2026-08-31 00:23:19 | 56.91407 | 3.68156 | 34° | 35km/h | 20375m | 5.4m/s | -51°C | 0.3% | 54.5hPa | 2.6V | 18:12:15 | 01:29:02 | 00:00:00 | |
| DL1XH-west | 2026-08-31 00:23:08 | 56.91327 | 3.68079 | 22° | 38km/h | 20326m | 3.5m/s | -51°C | 0.2% | 55hPa | 2.5V | 18:12:15 | 01:28:52 | 00:00:00 | |
| DJ2DS-15 | 2026-08-31 00:23:08 | 56.91327 | 3.68079 | 23° | 33km/h | 20326m | 3.5m/s | -51.0°C | 3.6% | 54.9hPa | 2.5V | 00:00:00 | 01:28:52 | 00:00:00 | |
| DM0DOS-11 | 2026-08-31 00:23:06 | 56.91275 | 3.68040 | 16° | 31km/h | 20291m | 5.5m/s | -51.2°C | 3.6% | 55.2hPa | 2.5V | 08:30:00 | 01:28:45 | 00:00:00 | |
| DL1XH-west | 2026-08-31 00:22:58 | 56.91241 | 3.68026 | 9° | 40km/h | 20272m | 4.3m/s | -51.2°C | 0.3% | 55.4hPa | 2.5V | 18:12:15 | 01:28:41 | 00:00:00 | |
| DM0DOS-11 | 2026-08-31 00:22:56 | 56.91188 | 3.68014 | 358° | 31km/h | 20242m | 4.1m/s | -50.9°C | 3.6% | 55.6hPa | 2.5V | 08:30:00 | 01:28:35 | 00:00:00 | |
| DL1XH-west | 2026-08-31 00:22:47 | 56.91159 | 3.68013 | 1° | 31km/h | 20221m | 4.5m/s | -50.8°C | 0.3% | 55.9hPa | 2.6V | 18:12:15 | 01:28:31 | 00:00:00 | |
| DM0DOS-11 | 2026-08-31 00:22:41 | 56.91105 | 3.68001 | 0° | 27km/h | 20189m | 4.4m/s | -50.6°C | 3.5% | 56.1hPa | 2.5V | 08:30:00 | 01:28:24 | 00:00:00 | |
| DL1XH-west | 2026-08-31 00:22:37 | 56.91083 | 3.67998 | 6° | 29km/h | 20174m | 5.5m/s | -50.5°C | 0.2% | 56.3hPa | 2.5V | 18:12:15 | 01:28:21 | 00:00:00 | |
| DM0DOS-11 | 2026-08-31 00:22:31 | 56.91039 | 3.67982 | 357° | 24km/h | 20141m | 4.6m/s | -50.4°C | 3.5% | 56.5hPa | 2.6V | 08:30:00 | 01:28:14 | 00:00:00 | |
| DL1XH-west | 2026-08-31 00:22:27 | 56.91014 | 3.67981 | 359° | 26km/h | 20121m | 5.4m/s | -50.3°C | 0.2% | 56.7hPa | 2.5V | 18:12:15 | 01:28:10 | 00:00:00 | |
| DL1XH-west | 2026-08-31 00:22:16 | 56.90965 | 3.67961 | 9° | 18km/h | 20071m | 4.8m/s | -50.1°C | 0.2% | 57.1hPa | 2.5V | 18:12:15 | 01:28:00 | 00:00:00 | |
| DM0DOS-11 | 2026-08-31 00:22:08 | 56.90921 | 3.67953 | 15° | 9km/h | 20009m | 5.2m/s | -49.9°C | 3.4% | 57.7hPa | 2.5V | 08:30:00 | 01:27:48 | 00:00:00 | |
| DL1XH-west | 2026-08-31 00:22:05 | 56.90921 | 3.67953 | 16° | 9km/h | 20009m | 5.2m/s | -49.9°C | 0.2% | 57.7hPa | 2.5V | 18:12:15 | 01:27:48 | 00:00:00 | |
| DL1XH-west | 2026-08-31 00:21:53 | 56.90886 | 3.67939 | 49° | 11km/h | 19955m | 5.3m/s | -49.7°C | 0.1% | 58.2hPa | 2.6V | 18:12:15 | 01:27:37 | 00:00:00 | |
| DJ2DS-15 | 2026-08-31 00:21:52 | 56.90884 | 3.67935 | 51° | 11km/h | 19950m | 4.6m/s | -49.6°C | 0.9% | 58.2hPa | 2.5V | 00:00:00 | 00:00:00 | 00:00:00 | |
| DM0DOS-11 | 2026-08-31 00:21:50 | 56.90866 | 3.67900 | 51° | 18km/h | 19912m | 4.7m/s | -49.4°C | 3.4% | 58.5hPa | 2.5V | 08:30:00 | 01:27:29 | 00:00:00 | |
| DL1XH-west | 2026-08-31 00:21:43 | 56.90860 | 3.67881 | 66° | 15km/h | 19898m | 4m/s | -49.3°C | 0.1% | 58.7hPa | 2.5V | 18:12:15 | 01:27:26 | 00:00:00 | |
| DM0DOS-11 | 2026-08-31 00:21:38 | 56.90838 | 3.67827 | 45° | 22km/h | 19861m | 5.4m/s | -49.1°C | 3.3% | 59hPa | 2.5V | 08:30:00 | 01:27:19 | 00:00:00 | |
| DL1XH-west | 2026-08-31 00:21:31 | 56.90824 | 3.67801 | 48° | 20km/h | 19841m | 5.6m/s | -49°C | 0.1% | 59.2hPa | 2.5V | 18:12:15 | 01:27:15 | 00:00:00 | |
| DL1XH-west | 2026-08-31 00:21:21 | 56.90787 | 3.67702 | 47° | 26km/h | 19790m | 4.2m/s | -48.8°C | 0% | 59.6hPa | 2.6V | 18:12:15 | 01:27:05 | 00:00:00 | |
| DL1XH-west | 2026-08-31 00:21:11 | 56.90734 | 3.67575 | 58° | 33km/h | 19735m | 3.2m/s | -48.9°C | 0% | 60.1hPa | 2.5V | 18:12:15 | 01:26:54 | 00:00:00 | |
| DM0DOS-11 | 2026-08-31 00:21:08 | 56.90718 | 3.67531 | 53° | 42km/h | 19719m | 4.6m/s | -48.9°C | 3.2% | 60.3hPa | 2.5V | 08:30:00 | 01:26:51 | 00:00:00 | |
| DJ2DS-15 | 2026-08-31 00:21:07 | 56.90718 | 3.67531 | 54° | 42km/h | 19720m | 4.5m/s | -48.9°C | 3.2% | 60.3hPa | 2.5V | 00:00:00 | 01:26:51 | 08:30:00 | |
| DM0DOS-11 | 2026-08-31 00:21:03 | 56.90654 | 3.67386 | 47° | 40km/h | 19672m | 4.8m/s | -49.3°C | 3.3% | 60.8hPa | 2.5V | 08:30:00 | 01:26:41 | 00:00:00 | |
| DL1XH-west | 2026-08-31 00:21:00 | 56.90672 | 3.67427 | 49° | 42km/h | 19687m | 4.8m/s | -49.2°C | 0.1% | 60.6hPa | 2.5V | 18:12:15 | 01:26:44 | 00:00:00 | |
| DL1XH-west | 2026-08-31 00:20:49 | 56.90588 | 3.67276 | 40° | 46km/h | 19633m | 5.7m/s | -49.4°C | 0.2% | 61.1hPa | 2.6V | 18:12:15 | 01:26:33 | 00:00:00 | |
| DM0DOS-11 | 2026-08-31 00:20:47 | 56.90553 | 3.67222 | 40° | 46km/h | 19612m | 4.5m/s | -49.4°C | 3.3% | 61.3hPa | 2.5V | 08:30:00 | 01:26:29 | 00:00:00 | |
| DL1XH-west | 2026-08-31 00:20:39 | 56.90489 | 3.67142 | 30° | 42km/h | 19577m | 4.2m/s | -49.3°C | 0.1% | 61.6hPa | 2.5V | 18:12:15 | 01:26:22 | 00:00:00 | |
| DM0DOS-11 | 2026-08-31 00:20:32 | 56.90423 | 3.67069 | 33° | 44km/h | 19540m | 3.8m/s | -49.2°C | 3.3% | 62hPa | 2.5V | 08:30:00 | 01:26:15 | 00:00:00 | |
| DL1XH-west | 2026-08-31 00:20:29 | 56.90397 | 3.67040 | 29° | 38km/h | 19526m | 3.8m/s | -49.1°C | 0.1% | 62.1hPa | 2.6V | 18:12:15 | 01:26:12 | 00:00:00 | |
| DJ2DS-15 | 2026-08-31 00:20:27 | 56.90388 | 3.67031 | 28° | 37km/h | 19522m | 5.1m/s | -49.0°C | 3.3% | 62.1hPa | 2.5V | 00:00:00 | 01:26:11 | 00:00:00 | |
| DM0DOS-11 | 2026-08-31 00:20:23 | 56.90332 | 3.66981 | 23° | 40km/h | 19492m | 5.2m/s | -49°C | 3.3% | 62.4hPa | 2.5V | 08:30:00 | 01:26:05 | 00:00:00 | |
| DL1XH-west | 2026-08-31 00:20:18 | 56.90297 | 3.66950 | 33° | 35km/h | 19473m | 4.7m/s | -49.1°C | 0% | 62.6hPa | 2.6V | 18:12:15 | 01:26:01 | 00:00:00 | |
| DM0DOS-11 | 2026-08-31 00:20:12 | 56.90257 | 3.66891 | 33° | 35km/h | 19442m | 5.4m/s | -49.1°C | 3.2% | 62.9hPa | 2.6V | 08:30:00 | 01:25:55 | 00:00:00 | |
| DL1XH-west | 2026-08-31 00:20:08 | 56.90227 | 3.66867 | 14° | 29km/h | 19422m | 4.6m/s | -49.1°C | 0% | 63.1hPa | 2.5V | 18:12:15 | 01:25:51 | 00:00:00 | |
| DL1XH-west | 2026-08-31 00:19:56 | 56.90165 | 3.66796 | 33° | 29km/h | 19369m | 4.7m/s | -49.1°C | 0% | 63.6hPa | 2.6V | 18:12:15 | 01:25:40 | 00:00:00 | |
| DL1XH-west | 2026-08-31 00:19:46 | 56.90116 | 3.66695 | 61° | 27km/h | 19314m | 5.4m/s | -49.4°C | 0% | 64.1hPa | 2.6V | 18:12:15 | 01:25:29 | 00:00:00 | |
| DM0DOS-11 | 2026-08-31 00:19:42 | 56.90095 | 3.66646 | 52° | 27km/h | 19289m | 4.2m/s | -49.6°C | 3.3% | 0hPa | 2.5V | 08:30:00 | 01:25:24 | 00:00:00 | |
| DL1XH-west | 2026-08-31 00:19:35 | 56.90070 | 3.66583 | 61° | 37km/h | 19265m | 3.7m/s | -49.6°C | 0.1% | 64.7hPa | 2.5V | 18:12:15 | 01:25:19 | 00:00:00 | |
| DL1XH-west | 2026-08-31 00:19:25 | 56.90023 | 3.66450 | 58° | 37km/h | 19217m | 3.7m/s | -49.8°C | 0.1% | 65.1hPa | 2.5V | 18:12:15 | 01:25:09 | 00:00:00 | |
| DL1XH-west | 2026-08-31 00:19:15 | 56.89955 | 3.66300 | 53° | 35km/h | 19164m | 3.9m/s | -49.5°C | 0.1% | 65.6hPa | 2.5V | 18:12:15 | 01:24:58 | 00:00:00 | |
| DL1XH-west | 2026-08-31 00:19:05 | 56.89884 | 3.66165 | 44° | 37km/h | 19114m | 3.7m/s | -49.6°C | 0.2% | 66.2hPa | 2.5V | 18:12:15 | 01:24:48 | 00:00:00 | |
| DM0DOS-11 | 2026-08-31 00:19:04 | 56.89878 | 3.66153 | 45° | 38km/h | 19109m | 5m/s | -49.6°C | 3.4% | 0hPa | 2.6V | 08:30:00 | 01:24:47 | 00:00:00 | |
| DM0DOS-11 | 2026-08-31 00:18:58 | 56.89808 | 3.66028 | 28° | 38km/h | 19059m | 4.5m/s | -49.4°C | 3.4% | 0hPa | 2.5V | 08:30:00 | 01:24:37 | 00:00:00 | |
| DL1XH-west | 2026-08-31 00:18:54 | 56.89808 | 3.66028 | 29° | 38km/h | 19059m | 4.5m/s | -49.4°C | 0.1% | 66.7hPa | 2.5V | 18:12:15 | 01:24:37 | 00:00:00 | |
| DM0DOS-11 | 2026-08-31 00:18:47 | 56.89734 | 3.65908 | 48° | 35km/h | 19003m | 5m/s | -48.9°C | 3.3% | 0hPa | 2.6V | 08:30:00 | 01:24:26 | 00:00:00 | |
| DL1XH-west | 2026-08-31 00:18:44 | 56.89739 | 3.65920 | 50° | 33km/h | 19009m | 4.5m/s | -49°C | 0.1% | 67.2hPa | 2.5V | 18:12:15 | 01:24:27 | 00:00:00 | |
| DM0DOS-11 | 2026-08-31 00:18:37 | 56.89675 | 3.65798 | 50° | 31km/h | 18957m | 4.1m/s | -48.6°C | 3.2% | 0hPa | 2.5V | 08:30:00 | 01:24:16 | 00:00:00 | |
| DL1XH-west | 2026-08-31 00:18:33 | 56.89675 | 3.65798 | 50° | 31km/h | 18957m | 4.1m/s | -48.6°C | 0.1% | 67.8hPa | 2.5V | 18:12:15 | 01:24:16 | 00:00:00 | |
| DM0DOS-11 | 2026-08-31 00:18:27 | 56.89622 | 3.65692 | 61° | 29km/h | 18907m | 3.9m/s | 0°C | 0% | 0hPa | 2.5V | 08:30:00 | 01:24:06 | 00:00:00 | |
| DL1XH-west | 2026-08-31 00:18:23 | 56.89618 | 3.65679 | 59° | 31km/h | 18903m | 4.8m/s | -48.5°C | 0% | 68.3hPa | 2.6V | 18:12:15 | 01:24:05 | 00:00:00 | |
| DJ2DS-15 | 2026-08-31 00:18:16 | 56.89585 | 3.65620 | 29° | 27km/h | 18874m | 4.9m/s | -48.3°C | 0.8% | 68.6hPa | 2.6V | 00:00:00 | 00:00:00 | 00:00:00 | |
| DM0DOS-11 | 2026-08-31 00:18:13 | 56.89567 | 3.65603 | 30° | 26km/h | 18859m | 4.1m/s | 0°C | 0% | 0hPa | 2.6V | 08:30:00 | 01:23:56 | 00:00:00 | |
| DL1XH-west | 2026-08-31 00:18:11 | 56.89562 | 3.65596 | 36° | 27km/h | 18854m | 5.9m/s | -48.4°C | 0.1% | 68.8hPa | 2.5V | 18:12:15 | 01:23:55 | 00:00:00 | |
| DJ2DS-15 | 2026-08-31 00:18:07 | 56.89540 | 3.65559 | 45° | 22km/h | 18836m | 4.2m/s | -48.4°C | 3.2% | 69.0hPa | 2.6V | 00:00:00 | 01:23:51 | 08:30:00 | |
| DM0DOS-11 | 2026-08-31 00:18:03 | 56.89513 | 3.65524 | 32° | 22km/h | 18811m | 5.5m/s | 0°C | 0% | 0hPa | 2.5V | 08:30:00 | 01:23:46 | 00:00:00 | |
| DL1XH-west | 2026-08-31 00:18:01 | 56.89505 | 3.65514 | 31° | 20km/h | 18801m | 4.8m/s | -48.3°C | 0% | 69.4hPa | 2.6V | 18:12:15 | 01:23:44 | 00:00:00 | |
| DM0DOS-11 | 2026-08-31 00:17:53 | 56.89471 | 3.65469 | 47° | 18km/h | 18760m | 5.9m/s | 0°C | 0% | 0hPa | 2.6V | 08:30:00 | 01:23:36 | 00:00:00 | |
| DL1XH-west | 2026-08-31 00:17:50 | 56.89465 | 3.65456 | 51° | 20km/h | 18750m | 5m/s | -48.2°C | 0% | 69.9hPa | 2.5V | 18:12:15 | 01:23:34 | 00:00:00 | |
| DJ2DS-15 | 2026-08-31 00:17:47 | 56.89455 | 3.65434 | 45° | 26km/h | 18736m | 4.7m/s | -48.1°C | 3.1% | 70.0hPa | 2.5V | 00:00:00 | 01:23:31 | 00:00:00 | |
| DM0DOS-11 | 2026-08-31 00:17:43 | 56.89436 | 3.65398 | 47° | 27km/h | 18710m | 4.8m/s | 0°C | 0% | 0hPa | 2.5V | 08:30:00 | 01:23:26 | 00:00:00 | |
| DL1XH-west | 2026-08-31 00:17:40 | 56.89424 | 3.65372 | 53° | 22km/h | 18695m | 4.2m/s | -48.2°C | 0% | 70.5hPa | 2.6V | 18:12:15 | 01:23:23 | 00:00:00 | |
| DJ2DS-15 | 2026-08-31 00:17:40 | 56.89424 | 3.65372 | 52° | 20km/h | 18695m | 4.2m/s | -48.2°C | 0.8% | 70.5hPa | 2.6V | 00:00:00 | 00:00:00 | 00:00:00 | |
| DM0DOS-11 | 2026-08-31 00:17:33 | 56.89408 | 3.65290 | 78° | 31km/h | 18658m | 4.6m/s | 0°C | 0% | 0hPa | 2.6V | 00:00:00 | 01:23:16 | 00:00:00 | |
| DL1XH-west | 2026-08-31 00:17:30 | 56.89404 | 3.65253 | 70° | 26km/h | 18643m | 4.9m/s | -48°C | 0% | 71.1hPa | 2.5V | 18:12:15 | 01:23:13 | 00:00:00 | |
| DL1XH-west | 2026-08-31 00:17:20 | 56.89378 | 3.65127 | 75° | 33km/h | 18591m | 3.9m/s | -48°C | 0% | 71.6hPa | 2.5V | 18:12:15 | 01:23:03 | 00:00:00 | |
| DL1XH-west | 2026-08-31 00:17:09 | 56.89340 | 3.64988 | 65° | 35km/h | 18542m | 4.6m/s | -48.2°C | 0% | 72.2hPa | 2.6V | 18:12:15 | 01:22:53 | 00:00:00 | |
| DL1XH-west | 2026-08-31 00:16:59 | 56.89296 | 3.64819 | 59° | 40km/h | 18491m | 4.7m/s | -48°C | 0% | 72.8hPa | 2.5V | 18:12:15 | 01:22:43 | 00:00:00 | |
| DL1XH-west | 2026-08-31 00:16:48 | 56.89235 | 3.64627 | 57° | 49km/h | 18436m | 5.7m/s | -48.1°C | 0% | 73.4hPa | 2.6V | 18:12:15 | 01:22:32 | 00:00:00 | |
| DL1XH-west | 2026-08-31 00:16:38 | 56.89170 | 3.64457 | 52° | 38km/h | 18380m | 3.4m/s | -48.2°C | 0% | 74hPa | 2.5V | 18:12:15 | 01:22:21 | 00:00:00 | |
| DL1XH-west | 2026-08-31 00:16:26 | 56.89091 | 3.64302 | 54° | 44km/h | 18324m | 5m/s | -48.1°C | 0% | 74.6hPa | 2.5V | 18:12:15 | 01:22:10 | 00:00:00 | |
| DL1XH-west | 2026-08-31 00:16:16 | 56.89006 | 3.64131 | 54° | 38km/h | 18266m | 4.5m/s | -48°C | 0% | 75.3hPa | 2.6V | 18:12:15 | 01:21:58 | 00:00:00 | |
| DL1XH-west | 2026-08-31 00:16:05 | 56.88947 | 3.63984 | 43° | 37km/h | 18218m | 4.2m/s | -47.9°C | 0% | 75.8hPa | 2.5V | 18:12:15 | 01:21:48 | 00:00:00 | |
| DL1XH-west | 2026-08-31 00:15:54 | 56.88886 | 3.63838 | 57° | 35km/h | 18165m | 5m/s | -47.9°C | 0% | 76.4hPa | 2.6V | 18:12:15 | 01:21:37 | 00:00:00 | |
| DL1XH-west | 2026-08-31 00:15:42 | 56.88820 | 3.63690 | 47° | 37km/h | 18110m | 5m/s | -48.2°C | 0% | 77.1hPa | 2.5V | 18:12:15 | 01:21:25 | 00:00:00 | |
| DL1XH-west | 2026-08-31 00:15:32 | 56.88745 | 3.63585 | 30° | 33km/h | 18059m | 4.9m/s | -48.1°C | 0% | 77.7hPa | 2.5V | 18:12:15 | 01:21:14 | 00:00:00 | |
| DL1XH-west | 2026-08-31 00:15:20 | 56.88670 | 3.63492 | 32° | 42km/h | 18012m | 5.1m/s | -48°C | 0% | 78.2hPa | 2.5V | 18:12:15 | 01:21:04 | 00:00:00 | |
| DL1XH-west | 2026-08-31 00:15:10 | 56.88592 | 3.63377 | 41° | 38km/h | 17963m | 4.7m/s | -48.1°C | 0% | 78.8hPa | 2.5V | 18:12:15 | 01:20:53 | 00:00:00 | |
| DL1XH-west | 2026-08-31 00:14:59 | 56.88516 | 3.63238 | 50° | 42km/h | 17919m | 4.3m/s | -48.4°C | 0% | 79.4hPa | 2.5V | 18:12:15 | 01:20:43 | 00:00:00 | |
| DL1XH-west | 2026-08-31 00:14:49 | 56.88443 | 3.63090 | 48° | 37km/h | 17869m | 3.7m/s | -48.9°C | 0% | 80hPa | 2.5V | 18:12:15 | 01:20:32 | 00:00:00 | |
| DL1XH-west | 2026-08-31 00:14:38 | 56.88378 | 3.62974 | 36° | 35km/h | 17819m | 4.2m/s | -48.8°C | 0% | 80.5hPa | 2.6V | 18:12:15 | 01:20:21 | 00:00:00 | |
| DL1XH-west | 2026-08-31 00:14:27 | 56.88306 | 3.62842 | 43° | 33km/h | 17772m | 3.7m/s | -49°C | 0.1% | 81.2hPa | 2.5V | 18:12:15 | 01:20:10 | 00:00:00 | |
| DL1XH-west | 2026-08-31 00:14:17 | 56.88256 | 3.62729 | 56° | 27km/h | 17726m | 4.3m/s | -49°C | 0% | 81.7hPa | 2.6V | 18:12:15 | 01:20:00 | 00:00:00 | |
| DL1XH-west | 2026-08-31 00:14:06 | 56.88203 | 3.62627 | 40° | 27km/h | 17682m | 4.4m/s | -49.1°C | 0.1% | 82.3hPa | 2.5V | 18:12:15 | 01:19:50 | 00:00:00 | |
| DL1XH-west | 2026-08-31 00:13:56 | 56.88144 | 3.62547 | 37° | 31km/h | 17636m | 4.8m/s | -49.3°C | 0.1% | 82.8hPa | 2.5V | 18:12:15 | 01:19:40 | 00:00:00 | |
| DL1XH-west | 2026-08-31 00:13:46 | 56.88071 | 3.62443 | 36° | 31km/h | 17584m | 3.8m/s | -49.3°C | 0.1% | 83.5hPa | 2.5V | 18:12:15 | 01:19:28 | 00:00:00 | |
| DL1XH-west | 2026-08-31 00:13:34 | 56.88019 | 3.62361 | 46° | 24km/h | 17533m | 3.8m/s | -49°C | 0.1% | 84.2hPa | 2.6V | 18:12:15 | 01:19:17 | 00:00:00 | |
| DL1XH-west | 2026-08-31 00:13:23 | 56.87977 | 3.62283 | 53° | 24km/h | 17484m | 5.7m/s | -48.9°C | 0% | 84.8hPa | 2.5V | 18:12:15 | 01:19:07 | 00:00:00 | |
| DL1XH-west | 2026-08-31 00:13:13 | 56.87931 | 3.62163 | 54° | 29km/h | 17432m | 4.5m/s | -48.9°C | 0% | 85.5hPa | 2.6V | 18:12:15 | 01:18:56 | 00:00:00 | |
| DL1XH-west | 2026-08-31 00:13:02 | 56.87895 | 3.62040 | 66° | 37km/h | 17385m | 4.3m/s | -48.9°C | 0.1% | 86.1hPa | 2.5V | 18:12:15 | 01:18:46 | 00:00:00 | |
| DL1XH-west | 2026-08-31 00:12:52 | 56.87849 | 3.61897 | 59° | 27km/h | 17332m | 4.4m/s | -48.9°C | 0.1% | 86.8hPa | 2.5V | 18:12:15 | 01:18:35 | 00:00:00 | |
| DJ2DS-15 | 2026-08-31 00:12:51 | 56.87849 | 3.61897 | 59° | 27km/h | 17332m | 4.4m/s | -48.9°C | 0.9% | 86.8hPa | 2.6V | 00:00:00 | 00:00:00 | 00:00:00 | |
| DL1XH-west | 2026-08-31 00:12:41 | 56.87797 | 3.61759 | 52° | 35km/h | 17278m | 5.5m/s | -48.8°C | 0% | 87.5hPa | 2.6V | 18:12:15 | 01:18:24 | 00:00:00 | |
| DL1XH-west | 2026-08-31 00:12:31 | 56.87731 | 3.61614 | 44° | 42km/h | 17226m | 3.5m/s | -48.9°C | 0% | 88.2hPa | 2.5V | 18:12:15 | 01:18:13 | 00:00:00 | |
| DL1XH-west | 2026-08-31 00:12:18 | 56.87651 | 3.61495 | 32° | 33km/h | 17173m | 5.2m/s | -48.8°C | 0% | 88.9hPa | 2.5V | 18:12:15 | 01:18:02 | 00:00:00 | |
| DL1XH-west | 2026-08-31 00:12:08 | 56.87581 | 3.61404 | 35° | 33km/h | 17126m | 5.6m/s | -48.9°C | 0.1% | 89.5hPa | 2.6V | 18:12:15 | 01:17:52 | 00:00:00 | |
| DL1XH-west | 2026-08-31 00:11:58 | 56.87500 | 3.61322 | 30° | 37km/h | 17073m | 4m/s | -48.8°C | 0.1% | 90.3hPa | 2.5V | 18:12:15 | 01:17:41 | 00:00:00 | |
| DL1XH-west | 2026-08-31 00:11:48 | 56.87430 | 3.61245 | 25° | 35km/h | 17031m | 4.1m/s | -48.7°C | 0% | 90.9hPa | 2.6V | 18:12:15 | 01:17:32 | 00:00:00 | |
| DL1XH-west | 2026-08-31 00:11:38 | 56.87355 | 3.61185 | 30° | 31km/h | 16983m | 3.7m/s | -48.6°C | 0% | 91.5hPa | 2.5V | 18:12:15 | 01:17:22 | 00:00:00 | |
| DL1XH-west | 2026-08-31 00:11:27 | 56.87282 | 3.61127 | 14° | 29km/h | 16932m | 3.6m/s | -48.9°C | 0% | 92.3hPa | 2.5V | 18:12:15 | 01:17:11 | 00:00:00 | |
| DL1XH-west | 2026-08-31 00:11:16 | 56.87219 | 3.61077 | 17° | 20km/h | 16879m | 4.9m/s | -49.1°C | 0% | 93hPa | 2.5V | 18:12:15 | 01:17:00 | 00:00:00 | |
| DL1XH-west | 2026-08-31 00:11:06 | 56.87170 | 3.61030 | 43° | 22km/h | 16832m | 4.9m/s | -49.1°C | 0.1% | 93.7hPa | 2.5V | 18:12:15 | 01:16:50 | 00:00:00 | |
| DL1XH-west | 2026-08-31 00:10:56 | 56.87126 | 3.60956 | 42° | 24km/h | 16784m | 5.5m/s | -49°C | 0.1% | 94.4hPa | 2.5V | 18:12:15 | 01:16:40 | 00:00:00 | |
| DL1XH-west | 2026-08-31 00:10:46 | 56.87072 | 3.60866 | 32° | 27km/h | 16730m | 4.8m/s | -48.9°C | 0.1% | 95.2hPa | 2.6V | 18:12:15 | 01:16:29 | 00:00:00 | |
| DL1XH-west | 2026-08-31 00:10:34 | 56.87002 | 3.60751 | 40° | 35km/h | 16682m | 4.5m/s | -48.7°C | 0.1% | 95.9hPa | 2.6V | 18:12:15 | 01:16:18 | 00:00:00 | |
| DL1XH-west | 2026-08-31 00:10:24 | 56.86932 | 3.60649 | 52° | 37km/h | 16636m | 4.1m/s | -49.1°C | 0.1% | 96.5hPa | 2.5V | 18:12:15 | 01:16:08 | 00:00:00 | |
| DL1XH-west | 2026-08-31 00:10:14 | 56.86847 | 3.60519 | 42° | 42km/h | 16588m | 4.7m/s | -49°C | 0.1% | 97.3hPa | 2.6V | 18:12:15 | 01:15:57 | 00:00:00 | |
| DL1XH-west | 2026-08-31 00:10:02 | 56.86765 | 3.60354 | 50° | 47km/h | 16536m | 5.5m/s | -49.3°C | 0.1% | 98hPa | 2.6V | 18:12:15 | 01:15:46 | 00:00:00 | |
| DL1XH-west | 2026-08-31 00:09:51 | 56.86680 | 3.60164 | 50° | 44km/h | 16486m | 4.5m/s | -49.1°C | 0% | 98.8hPa | 2.6V | 18:12:15 | 01:15:35 | 00:00:00 | |
| DJ2DS-15 | 2026-08-31 00:09:51 | 56.86673 | 3.60149 | 49° | 42km/h | 16482m | 4.2m/s | -49.0°C | 1.0% | 98.8hPa | 2.5V | 00:00:00 | 00:00:00 | 00:00:00 | |
| DL1XH-west | 2026-08-31 00:09:40 | 56.86605 | 3.59999 | 47° | 40km/h | 16437m | 3.4m/s | -49.3°C | 0.1% | 99.5hPa | 2.5V | 18:12:15 | 01:15:24 | 00:00:00 | |
| DL1XH-west | 2026-08-31 00:09:29 | 56.86522 | 3.59856 | 38° | 44km/h | 16388m | 4.8m/s | -49.2°C | 0.1% | 100.2hPa | 2.5V | 18:12:15 | 01:15:13 | 00:00:00 | |
| DL1XH-west | 2026-08-31 00:09:19 | 56.86415 | 3.59683 | 44° | 38km/h | 16330m | 3.6m/s | -49°C | 0.1% | 101.2hPa | 2.5V | 18:12:15 | 01:15:00 | 00:00:00 | |
| DL1XH-west | 2026-08-31 00:09:08 | 56.86339 | 3.59556 | 41° | 37km/h | 16286m | 4.2m/s | -49°C | 0.1% | 101.8hPa | 2.5V | 18:12:15 | 01:14:50 | 00:00:00 | |
| DL1XH-west | 2026-08-31 00:08:57 | 56.86258 | 3.59440 | 38° | 42km/h | 16241m | 5.4m/s | -48.9°C | 0.1% | 102.6hPa | 2.6V | 18:12:15 | 01:14:40 | 00:00:00 | |
| DL1XH-west | 2026-08-31 00:08:46 | 56.86165 | 3.59294 | 39° | 37km/h | 16185m | 4.6m/s | -48.8°C | 0.1% | 103.4hPa | 2.6V | 18:12:15 | 01:14:28 | 00:00:00 | |
| DL1XH-west | 2026-08-31 00:08:35 | 56.86105 | 3.59186 | 43° | 38km/h | 16144m | 4.7m/s | -48.7°C | 0.1% | 104hPa | 2.5V | 18:12:15 | 01:14:19 | 00:00:00 | |
| DL1XH-west | 2026-08-31 00:08:25 | 56.86044 | 3.59069 | 42° | 31km/h | 16097m | 4.5m/s | -48.6°C | 0.1% | 104.8hPa | 2.6V | 18:12:15 | 01:14:09 | 00:00:00 | |
| DL1XH-west | 2026-08-31 00:08:15 | 56.85971 | 3.58923 | 46° | 37km/h | 16048m | 3.9m/s | -48.7°C | 0.1% | 105.6hPa | 2.6V | 18:12:15 | 01:13:58 | 00:00:00 | |
| DL1XH-west | 2026-08-31 00:08:04 | 56.85894 | 3.58799 | 37° | 42km/h | 15998m | 4.6m/s | -48.7°C | 0.1% | 106.4hPa | 2.6V | 18:12:15 | 01:13:47 | 00:00:00 | |
| DL1XH-west | 2026-08-31 00:07:54 | 56.85816 | 3.58680 | 39° | 40km/h | 15952m | 3.8m/s | -48.6°C | 0.1% | 107.2hPa | 2.5V | 18:12:15 | 01:13:37 | 00:00:00 | |
| DL1XH-west | 2026-08-31 00:07:43 | 56.85734 | 3.58571 | 46° | 37km/h | 15901m | 4.6m/s | -48.3°C | 0.1% | 108hPa | 2.5V | 18:12:15 | 01:13:26 | 00:00:00 | |
| DL1XH-west | 2026-08-31 00:07:32 | 56.85666 | 3.58450 | 51° | 33km/h | 15848m | 3.8m/s | -48.1°C | 0.1% | 108.9hPa | 2.5V | 18:12:15 | 01:13:15 | 00:00:00 | |
| DL1XH-west | 2026-08-31 00:07:22 | 56.85613 | 3.58344 | 43° | 26km/h | 15802m | 5.4m/s | -47.9°C | 0% | 109.7hPa | 2.6V | 18:12:15 | 01:13:05 | 00:00:00 | |
| DL1XH-west | 2026-08-31 00:07:11 | 56.85563 | 3.58213 | 51° | 31km/h | 15749m | 5.3m/s | -47.7°C | 0.1% | 110.5hPa | 2.6V | 18:12:15 | 01:12:54 | 00:00:00 | |
| DL1XH-west | 2026-08-31 00:06:59 | 56.85506 | 3.58078 | 57° | 35km/h | 15697m | 4.1m/s | -47.5°C | 0% | 111.4hPa | 2.6V | 18:12:15 | 01:12:43 | 00:00:00 | |
| DL1XH-west | 2026-08-31 00:06:50 | 56.85446 | 3.57950 | 50° | 33km/h | 15646m | 4.9m/s | -47.4°C | 0% | 112.3hPa | 2.5V | 18:12:15 | 01:12:32 | 00:00:00 | |
| DL1XH-west | 2026-08-31 00:06:38 | 56.85393 | 3.57804 | 56° | 37km/h | 15593m | 4.8m/s | -47.5°C | 0% | 113.2hPa | 2.5V | 18:12:15 | 01:12:21 | 00:00:00 | |
| DL1XH-west | 2026-08-31 00:06:27 | 56.85344 | 3.57644 | 59° | 40km/h | 15545m | 4.9m/s | -47.4°C | 0% | 114hPa | 2.5V | 18:12:15 | 01:12:11 | 00:00:00 | |
| DL1XH-west | 2026-08-31 00:06:17 | 56.85284 | 3.57457 | 61° | 44km/h | 15498m | 4.8m/s | -47.5°C | 0% | 114.8hPa | 2.5V | 18:12:15 | 01:12:01 | 00:00:00 | |
| DL1XH-west | 2026-08-31 00:06:07 | 56.85215 | 3.57266 | 50° | 53km/h | 15450m | 4.5m/s | -47.7°C | 0.1% | 115.6hPa | 2.6V | 18:12:15 | 01:11:51 | 00:00:00 | |
| DL1XH-west | 2026-08-31 00:05:57 | 56.85109 | 3.57053 | 42° | 49km/h | 15395m | 3.7m/s | -47.6°C | 0.1% | 116.6hPa | 2.6V | 18:12:15 | 01:11:39 | 00:00:00 | |
| DL1XH-west | 2026-08-31 00:05:46 | 56.85006 | 3.56882 | 44° | 47km/h | 15346m | 5.3m/s | -47.4°C | 0% | 117.5hPa | 2.6V | 18:12:15 | 01:11:28 | 00:00:00 | |
| DL1XH-west | 2026-08-31 00:05:33 | 56.84902 | 3.56731 | 37° | 49km/h | 15297m | 3.7m/s | -47.5°C | 0.1% | 118.4hPa | 2.6V | 18:12:15 | 01:11:17 | 00:00:00 | |
| DL1XH-west | 2026-08-31 00:05:22 | 56.84798 | 3.56589 | 38° | 46km/h | 15245m | 3.9m/s | -47.6°C | 0.1% | 119.3hPa | 2.6V | 18:12:15 | 01:11:06 | 00:00:00 | |
| DL1XH-west | 2026-08-31 00:05:12 | 56.84592 | 3.56296 | 33° | 44km/h | 15146m | 4.4m/s | -47.5°C | 0.1% | 121.1hPa | 2.6V | 18:12:15 | 01:10:44 | 00:00:00 | |
| DL1XH-west | 2026-08-31 00:04:51 | 56.84509 | 3.56189 | 32° | 42km/h | 15104m | 3.2m/s | -47.4°C | 0.1% | 121.9hPa | 2.5V | 18:12:15 | 01:10:35 | 00:00:00 | |
| DL1XH-west | 2026-08-31 00:04:40 | 56.84385 | 3.56054 | 34° | 29km/h | 15035m | 4.5m/s | -47.4°C | 0% | 123.2hPa | 2.5V | 18:12:15 | 01:10:20 | 00:00:00 | |
| DL1XH-west | 2026-08-31 00:04:29 | 56.84338 | 3.55996 | 36° | 37km/h | 15004m | 5.3m/s | -47.3°C | 0% | 123.8hPa | 2.5V | 18:12:15 | 01:10:13 | 00:00:00 | |
| DL1XH-west | 2026-08-31 00:04:19 | 56.84245 | 3.55865 | 40° | 38km/h | 14948m | 3.9m/s | -47.2°C | 0% | 124.8hPa | 2.6V | 18:12:15 | 01:10:01 | 00:00:00 | |
| DL1XH-west | 2026-08-31 00:04:07 | 56.84150 | 3.55714 | 42° | 40km/h | 14895m | 4.8m/s | -47.2°C | 0% | 125.8hPa | 2.6V | 18:12:15 | 01:09:49 | 00:00:00 | |
| DL1XH-west | 2026-08-31 00:03:57 | 56.84073 | 3.55584 | 51° | 46km/h | 14850m | 3.8m/s | -47.2°C | 0% | 126.7hPa | 2.6V | 18:12:15 | 01:09:39 | 00:00:00 | |
| DL1XH-west | 2026-08-31 00:03:46 | 56.84001 | 3.55453 | 43° | 44km/h | 14810m | 3.6m/s | -47.8°C | 0.1% | 127.4hPa | 2.5V | 18:12:15 | 01:09:30 | 00:00:00 | |
| DL1XH-west | 2026-08-31 00:03:35 | 56.83887 | 3.55274 | 39° | 53km/h | 14757m | 4.3m/s | -47.8°C | 0.1% | 128.5hPa | 2.6V | 18:12:15 | 01:09:18 | 00:00:00 | |
| DL1XH-west | 2026-08-31 00:03:25 | 56.83799 | 3.55147 | 35° | 46km/h | 14717m | 4.1m/s | -47.7°C | 0.2% | 129.2hPa | 2.5V | 18:12:15 | 01:09:09 | 00:00:00 | |
| DL1XH-west | 2026-08-31 00:03:16 | 56.83707 | 3.55007 | 41° | 47km/h | 14672m | 4.7m/s | -47.8°C | 0.2% | 130.2hPa | 2.7V | 18:12:15 | 01:08:59 | 00:00:00 | |
| DL1XH-west | 2026-08-31 00:03:05 | 56.83625 | 3.54875 | 44° | 38km/h | 14629m | 3.5m/s | -47.8°C | 0.2% | 131hPa | 2.5V | 18:12:15 | 01:08:49 | 00:00:00 | |
| DL1XH-west | 2026-08-31 00:02:55 | 56.83556 | 3.54766 | 32° | 35km/h | 14582m | 3.7m/s | -47.7°C | 0.2% | 131.9hPa | 2.6V | 18:12:15 | 01:08:39 | 00:00:00 | |
| DL1XH-west | 2026-08-31 00:02:45 | 56.83470 | 3.54639 | 40° | 33km/h | 14520m | 3.8m/s | -47.2°C | 0.1% | 133.1hPa | 2.6V | 18:12:15 | 01:08:26 | 00:00:00 | |
| DJ2DS-15 | 2026-08-31 00:02:37 | 56.83223 | 3.54175 | 44° | 38km/h | 14357m | 3.7m/s | -46.4°C | 3.0% | 136.5hPa | 2.5V | 00:00:00 | 01:07:50 | 00:00:00 | |
| DL1XH-west | 2026-08-31 00:02:33 | 56.83371 | 3.54443 | 47° | 42km/h | 14447m | 4.5m/s | -46.9°C | 0.1% | 134.6hPa | 2.5V | 18:12:15 | 01:08:10 | 00:00:00 | |
| DL1XH-west | 2026-08-31 00:02:19 | 56.83295 | 3.54306 | 47° | 40km/h | 14403m | 5m/s | -46.7°C | 0% | 135.6hPa | 2.6V | 18:12:15 | 01:08:00 | 00:00:00 | |
| DJ2DS-15 | 2026-08-31 00:02:12 | 56.83067 | 3.53956 | 36° | 42km/h | 14267m | 3.3m/s | -46.3°C | 3.0% | 138.3hPa | 2.5V | 00:00:00 | 01:07:30 | 00:00:00 | |
| DL1XH-west | 2026-08-31 00:02:07 | 56.83224 | 3.54175 | 44° | 40km/h | 14357m | 3.8m/s | -46.5°C | 0% | 136.5hPa | 2.5V | 18:12:15 | 01:07:50 | 00:00:00 | |
| DL1XH-west | 2026-08-31 00:01:58 | 56.83115 | 3.54018 | 36° | 38km/h | 14293m | 4.5m/s | -46.3°C | 0% | 137.8hPa | 2.6V | 18:12:15 | 01:07:36 | 00:00:00 | |
| DL1XH-west | 2026-08-31 00:01:46 | 56.83067 | 3.53957 | 35° | 38km/h | 14266m | 3.4m/s | -46.4°C | 0% | 138.4hPa | 2.6V | 18:12:15 | 01:07:30 | 00:00:00 | |
| DJ2DS-15 | 2026-08-31 00:01:39 | 56.82878 | 3.53786 | 25° | 42km/h | 14173m | 4.2m/s | -46.0°C | 3.0% | 140.3hPa | 2.5V | 00:00:00 | 01:07:10 | 00:00:00 | |
| DJ2DS-15 | 2026-08-31 00:01:38 | 56.82868 | 3.53778 | 24° | 42km/h | 14168m | 4.7m/s | -46.0°C | 1.0% | 140.4hPa | 2.5V | 00:00:00 | 00:00:00 | 00:00:00 | |
| DL1XH-west | 2026-08-31 00:01:36 | 56.82969 | 3.53857 | 28° | 42km/h | 14216m | 4.4m/s | -46.3°C | 0.1% | 139.4hPa | 2.5V | 18:12:15 | 01:07:19 | 00:00:00 | |
| DL1XH-west | 2026-08-31 00:01:25 | 56.82868 | 3.53778 | 24° | 42km/h | 14168m | 4.7m/s | -46°C | 0% | 140.4hPa | 2.7V | 18:12:15 | 01:07:09 | 00:00:00 | |
| DL1XH-west | 2026-08-31 00:01:15 | 56.82771 | 3.53701 | 24° | 46km/h | 14122m | 4.6m/s | -45.9°C | 0% | 141.4hPa | 2.5V | 18:12:15 | 01:06:59 | 00:00:00 | |
| DJ2DS-15 | 2026-08-31 00:01:12 | 56.82687 | 3.53621 | 27° | 40km/h | 14081m | 3.9m/s | -45.7°C | 2.9% | 142.2hPa | 2.6V | 00:00:00 | 01:06:50 | 00:00:00 | |
| DL1XH-west | 2026-08-31 00:01:05 | 56.82651 | 3.53585 | 30° | 44km/h | 14063m | 4.5m/s | -45.6°C | 0% | 142.6hPa | 2.5V | 18:12:15 | 01:06:46 | 00:00:00 | |
| DJ2DS-15 | 2026-08-31 00:00:53 | 56.82543 | 3.53458 | 31° | 35km/h | 14007m | 3.4m/s | -45.4°C | 1.0% | 143.9hPa | 2.6V | 00:00:00 | 00:00:00 | 00:00:00 | |
| DL1XH-west | 2026-08-31 00:00:52 | 56.82543 | 3.53458 | 32° | 35km/h | 14007m | 3.4m/s | -45.4°C | 0% | 143.9hPa | 2.6V | 18:12:15 | 01:06:33 | 00:00:00 | |
| DJ2DS-15 | 2026-08-31 00:00:46 | 56.82519 | 3.53429 | 37° | 40km/h | 13994m | 5.3m/s | -45.4°C | 2.8% | 144.1hPa | 2.7V | 00:00:00 | 01:06:30 | 00:00:00 | |
| DL1XH-west | 2026-08-31 00:00:42 | 56.82489 | 3.53386 | 37° | 38km/h | 13977m | 3.8m/s | -45.5°C | 0% | 144.5hPa | 2.7V | 18:12:15 | 01:06:26 | 00:00:00 | |
| DL1XH-west | 2026-08-31 00:00:32 | 56.82402 | 3.53260 | 42° | 44km/h | 13929m | 4.5m/s | 0°C | 0% | 145.6hPa | 2.7V | 18:12:15 | 01:06:15 | 00:00:00 | |
| DJ2DS-15 | 2026-08-31 00:00:29 | 56.82360 | 3.53191 | 39° | 44km/h | 13909m | 4.0m/s | -46.9°C | 3.2% | 146.0hPa | 2.7V | 00:00:00 | 01:06:10 | 00:00:00 | |
| DL1XH-west | 2026-08-31 00:00:21 | 56.82269 | 3.53099 | 32° | 38km/h | 13867m | 3.9m/s | 0°C | 0% | 146.9hPa | 2.7V | 18:12:15 | 01:06:00 | 00:00:00 | |
| DL1XH-west | 2026-08-31 00:00:08 | 56.82196 | 3.53009 | 35° | 46km/h | 13833m | 3.1m/s | 0°C | 0% | 147.7hPa | 2.6V | 18:12:15 | 01:05:52 | 00:00:00 | |
| DJ2DS-15 | 2026-08-31 00:00:08 | 56.82177 | 3.52984 | 38° | 46km/h | 13824m | 4.5m/s | -46.4°C | 3.1% | 147.9hPa | 2.7V | 00:00:00 | 01:05:50 | 08:30:00 | |
| DL1XH-west | 2026-08-30 23:59:57 | 56.82105 | 3.52866 | 44° | 46km/h | 13785m | 3.9m/s | 0°C | 0% | 148.8hPa | 2.7V | 18:12:15 | 01:05:41 | 00:00:00 | |
| DL1XH-west | 2026-08-30 23:59:46 | 56.82001 | 3.52679 | 51° | 53km/h | 13732m | 5.1m/s | 0°C | 0% | 150hPa | 2.7V | 18:12:15 | 01:05:29 | 00:00:00 | |
| DJ2DS-15 | 2026-08-30 23:59:46 | 56.82009 | 3.52697 | 52° | 53km/h | 13737m | 4.2m/s | -46.6°C | 3.0% | 149.8hPa | 2.7V | 00:00:00 | 01:05:30 | 00:00:00 | |
| DL1XH-west | 2026-08-30 23:59:35 | 56.81901 | 3.52488 | 47° | 49km/h | 13684m | 3.6m/s | 0°C | 0% | 0hPa | 2.7V | 18:12:15 | 01:05:18 | 00:00:00 | |
| DJ2DS-15 | 2026-08-30 23:59:26 | 56.81827 | 3.52343 | 45° | 53km/h | 13653m | 3.8m/s | -47.2°C | 3.3% | 151.8hPa | 2.6V | 00:00:00 | 01:05:10 | 00:00:00 | |
| DL1XH-west | 2026-08-30 23:59:23 | 56.81798 | 3.52290 | 44° | 53km/h | 13640m | 4.4m/s | 0°C | 0% | 0hPa | 2.6V | 18:12:15 | 01:05:07 | 00:00:00 | |
| DJ2DS-15 | 2026-08-30 23:59:06 | 56.81630 | 3.52008 | 41° | 53km/h | 13569m | 4.2m/s | -47.1°C | 3.3% | 153.7hPa | 2.6V | 00:00:00 | 01:04:50 | 00:00:00 | |
| DJ2DS-15 | 2026-08-30 23:59:01 | 56.81578 | 3.51925 | 42° | 53km/h | 13548m | 4.0m/s | -47.0°C | 1.2% | 154.3hPa | 2.6V | 00:00:00 | 00:00:00 | 00:00:00 | |
| DJ2DS-15 | 2026-08-30 23:58:46 | 56.81430 | 3.51674 | 39° | 46km/h | 13485m | 4.0m/s | -46.8°C | 3.3% | 155.7hPa | 2.6V | 00:00:00 | 01:04:30 | 00:00:00 | |
| DJ2DS-15 | 2026-08-30 23:58:26 | 56.81252 | 3.51406 | 41° | 42km/h | 13397m | 4.8m/s | -46.8°C | 3.3% | 157.8hPa | 2.6V | 00:00:00 | 01:04:10 | 00:00:00 | |
| DJ2DS-15 | 2026-08-30 23:58:06 | 56.81096 | 3.51133 | 48° | 44km/h | 13310m | 3.8m/s | -46.3°C | 3.2% | 159.9hPa | 2.6V | 00:00:00 | 01:03:50 | 00:00:00 | |
| DJ2DS-15 | 2026-08-30 23:57:49 | 56.80971 | 3.50871 | 48° | 46km/h | 13236m | 4.8m/s | -46.3°C | 1.3% | 161.8hPa | 2.6V | 00:00:00 | 00:00:00 | 00:00:00 | |
| DJ2DS-15 | 2026-08-30 23:57:46 | 56.80947 | 3.50821 | 48° | 49km/h | 13222m | 3.6m/s | -46.1°C | 3.2% | 162.0hPa | 2.6V | 00:00:00 | 01:03:30 | 00:00:00 | |
| DJ2DS-15 | 2026-08-30 23:57:26 | 56.80777 | 3.50492 | 50° | 46km/h | 13133m | 4.0m/s | -45.7°C | 3.1% | 164.2hPa | 2.6V | 00:00:00 | 01:03:10 | 00:00:00 | |
| DJ2DS-15 | 2026-08-30 23:57:06 | 56.80599 | 3.50217 | 38° | 42km/h | 13048m | 4.7m/s | -45.5°C | 3.1% | 166.3hPa | 2.6V | 00:00:00 | 01:02:50 | 08:30:00 | |
| DJ2DS-15 | 2026-08-30 23:56:45 | 56.80442 | 3.49942 | 53° | 47km/h | 12954m | 4.5m/s | -45.6°C | 3.2% | 168.7hPa | 2.7V | 00:00:00 | 01:02:29 | 00:00:00 | |
| DJ2DS-15 | 2026-08-30 23:56:37 | 56.80388 | 3.49821 | 55° | 44km/h | 12917m | 4.2m/s | -45.6°C | 1.3% | 169.7hPa | 2.7V | 00:00:00 | 00:00:00 | 00:00:00 | |
| DJ2DS-15 | 2026-08-30 23:56:18 | 56.80268 | 3.49473 | 53° | 53km/h | 12832m | 3.8m/s | -46.3°C | 3.1% | 171.8hPa | 2.7V | 00:00:00 | 01:02:02 | 00:00:00 | |
| DJ2DS-15 | 2026-08-30 23:55:58 | 56.80096 | 3.49095 | 52° | 60km/h | 12749m | 4.5m/s | -46.7°C | 3.3% | 174.0hPa | 2.7V | 00:00:00 | 01:01:42 | 00:00:00 | |
| DJ2DS-15 | 2026-08-30 23:55:38 | 56.79883 | 3.48697 | 42° | 64km/h | 12657m | 3.5m/s | -46.1°C | 3.2% | 176.4hPa | 2.7V | 00:00:00 | 01:01:22 | 00:00:00 | |
| DJ2DS-15 | 2026-08-30 23:55:25 | 56.79731 | 3.48442 | 39° | 64km/h | 12597m | 5.5m/s | -46.2°C | 1.2% | 178.0hPa | 2.7V | 00:00:00 | 00:00:00 | 00:00:00 | |
| DJ2DS-15 | 2026-08-30 23:55:18 | 56.79635 | 3.48316 | 32° | 66km/h | 12561m | 4.5m/s | -46.2°C | 3.0% | 179.0hPa | 2.7V | 00:00:00 | 01:01:02 | 00:00:00 | |
| DJ2DS-15 | 2026-08-30 23:54:58 | 56.79336 | 3.48044 | 25° | 64km/h | 12472m | 4.4m/s | -46.8°C | 3.3% | 181.4hPa | 2.7V | 00:00:00 | 01:00:42 | 00:00:00 | |
| DJ2DS-15 | 2026-08-30 23:54:37 | 56.79034 | 3.47757 | 33° | 60km/h | 12379m | 5.0m/s | -46.5°C | 3.3% | 184.0hPa | 2.6V | 00:00:00 | 01:00:21 | 00:00:00 | |
| DJ2DS-15 | 2026-08-30 23:54:17 | 56.78789 | 3.47430 | 40° | 58km/h | 12293m | 4.4m/s | -46.6°C | 3.3% | 186.4hPa | 2.6V | 00:00:00 | 01:00:01 | 00:00:00 | |
| DJ2DS-15 | 2026-08-30 23:54:13 | 56.78743 | 3.47368 | 34° | 55km/h | 12275m | 5.3m/s | -46.7°C | 1.4% | 187.0hPa | 2.6V | 00:00:00 | 00:00:00 | 00:00:00 | |
| DJ2DS-15 | 2026-08-30 23:53:55 | 56.78538 | 3.47071 | 40° | 58km/h | 12198m | 4.2m/s | -47.0°C | 3.4% | 189.1hPa | 2.6V | 00:00:00 | 00:59:39 | 08:30:00 | |
| DJ2DS-15 | 2026-08-30 23:53:35 | 56.78302 | 3.46758 | 30° | 60km/h | 12112m | 5.2m/s | -47.9°C | 3.5% | 191.5hPa | 2.7V | 00:00:00 | 00:59:19 | 00:00:00 | |
| DJ2DS-15 | 2026-08-30 23:53:15 | 56.78043 | 3.46458 | 28° | 55km/h | 12026m | 3.5m/s | -48.6°C | 3.7% | 194.1hPa | 2.7V | 00:00:00 | 00:58:59 | 00:00:00 | |
| DJ2DS-15 | 2026-08-30 23:53:01 | 56.77859 | 3.46278 | 31° | 57km/h | 11964m | 3.7m/s | -48.4°C | 1.6% | 196.1hPa | 2.7V | 00:00:00 | 00:00:00 | 00:00:00 | |
| DJ2DS-15 | 2026-08-30 23:52:55 | 56.77802 | 3.46211 | 35° | 53km/h | 11944m | 4.5m/s | -48.2°C | 3.6% | 196.6hPa | 2.7V | 00:00:00 | 00:58:39 | 00:00:00 | |
| DJ2DS-15 | 2026-08-30 23:52:35 | 56.77584 | 3.45929 | 38° | 57km/h | 11860m | 3.8m/s | -48.4°C | 3.6% | 199.0hPa | 2.6V | 00:00:00 | 00:58:19 | 00:00:00 | |
| DJ2DS-15 | 2026-08-30 23:52:25 | 56.77466 | 3.45741 | 41° | 58km/h | 11815m | 4.7m/s | -48.1°C | 1.6% | 200.5hPa | 2.6V | 00:00:00 | 00:00:00 | 00:00:00 | |
| DJ2DS-15 | 2026-08-30 23:52:15 | 56.77370 | 3.45573 | 46° | 60km/h | 11777m | 3.8m/s | -48.9°C | 3.9% | 201.6hPa | 2.6V | 00:00:00 | 00:57:59 | 00:00:00 | |
| DJ2DS-15 | 2026-08-30 23:51:55 | 56.77159 | 3.45187 | 46° | 55km/h | 11696m | 3.8m/s | -48.9°C | 4.0% | 204.1hPa | 2.6V | 00:00:00 | 00:57:39 | 00:00:00 | |
| DJ2DS-15 | 2026-08-30 23:51:34 | 56.76957 | 3.44803 | 44° | 55km/h | 11606m | 4.4m/s | -48.6°C | 4.1% | 206.9hPa | 2.6V | 00:00:00 | 00:57:18 | 00:00:00 | |
| DJ2DS-15 | 2026-08-30 23:51:14 | 56.76773 | 3.44432 | 55° | 55km/h | 11518m | 3.2m/s | -48.9°C | 4.6% | 209.7hPa | 2.6V | 00:00:00 | 00:56:58 | 00:00:00 | |
| DJ2DS-15 | 2026-08-30 23:50:54 | 56.76593 | 3.44051 | 45° | 57km/h | 11432m | 4.1m/s | -49.0°C | 5.7% | 212.5hPa | 2.6V | 00:00:00 | 00:56:38 | 08:30:00 | |
| DJ2DS-15 | 2026-08-30 23:50:17 | 56.76162 | 3.43423 | 44° | 58km/h | 11265m | 4.7m/s | -49.3°C | 5.6% | 217.9hPa | 0V | 00:00:00 | 00:56:01 | 00:00:00 | |
| DJ2DS-15 | 2026-08-30 23:49:57 | 56.75957 | 3.43066 | 43° | 60km/h | 11179m | 4.4m/s | -50.0°C | 6.5% | 220.9hPa | 0V | 00:00:00 | 00:55:41 | 00:00:00 | |
| DJ2DS-15 | 2026-08-30 23:49:37 | 56.75752 | 3.42654 | 49° | 66km/h | 11091m | 4.5m/s | 0°C | 0% | 0hPa | 0V | 00:00:00 | 00:55:21 | 00:00:00 | |
| DJ2DS-15 | 2026-08-30 23:49:24 | 56.75606 | 3.42400 | 43° | 57km/h | 11033m | 3.7m/s | -50.6°C | -1.0% | 226.0hPa | 0V | 00:00:00 | 00:00:00 | 00:00:00 | |
| DJ2DS-15 | 2026-08-30 23:48:48 | 56.75125 | 3.41697 | 35° | 77km/h | 10882m | 3.9m/s | -53.1°C | -1.0% | -1.0hPa | 0V | 00:00:00 | 00:00:00 | 00:00:00 | |
| DJ2DS-15 | 2026-08-30 23:47:01 | 56.73205 | 3.40030 | 21° | 75km/h | 10421m | 4.0m/s | 0°C | 0% | 0hPa | 0V | 00:00:00 | 00:52:45 | 00:00:00 | |
| DJ2DS-15 | 2026-08-30 23:46:41 | 56.72853 | 3.39784 | 22° | 69km/h | 10334m | 4.8m/s | 0°C | 0% | 0hPa | 0V | 00:00:00 | 00:52:25 | 00:00:00 | |
| DJ2DS-15 | 2026-08-30 23:46:21 | 56.72529 | 3.39530 | 26° | 68km/h | 10251m | 3.3m/s | 0°C | 0% | 0hPa | 0V | 00:00:00 | 00:52:05 | 00:00:00 | |
| DJ2DS-15 | 2026-08-30 23:46:00 | 56.72206 | 3.39251 | 27° | 64km/h | 10167m | 4.2m/s | 0°C | 0% | 0hPa | 0V | 00:00:00 | 00:51:44 | 00:00:00 | |
| DJ2DS-15 | 2026-08-30 23:45:40 | 56.71914 | 3.38988 | 28° | 60km/h | 10086m | 4.9m/s | 0°C | 0% | 0hPa | 0V | 00:00:00 | 00:51:24 | 00:00:00 |